Time;durP1;ratioP1;P1;durP2;ratioP2;P2;SDS_P1;SDS_P2;PMS_P1;PMS_P2;Temp;Humidity;BMP_temperature;BMP_pressure;BME280_temperature;BME280_humidity;BME280_pressure;Samples;Min_cycle;Max_cycle;Signal;HPM_P1;HPM_P2
2022/03/17 00:00:22;;;;;;;;;;;;;;;7.74;73.63;102319.75;5034604;28;19939;-85
2022/03/17 00:02:47;;;;;;;;;;;;;;;7.77;73.62;102322.66;5017718;28;20008;-84
2022/03/17 00:05:13;;;;;;;;;;;;;;;7.75;73.53;102324.19;5015886;28;19928;-85
2022/03/17 00:07:39;;;;;;;;;;;;;;;7.72;73.86;102330.00;5036319;28;19940;-84
2022/03/17 00:10:05;;;;;;;;;;;;;;;7.79;73.59;102323.72;5045450;28;20322;-85
2022/03/17 00:12:30;;;;;;;;;;;;;;;7.83;73.48;102335.28;5048681;28;19923;-86
2022/03/17 00:14:56;;;;;;;;;;;;;;;7.82;73.42;102333.47;5032214;28;19928;-85
2022/03/17 00:17:21;;;;;;;;;;;;;;;7.74;74.01;102338.88;5032578;28;19918;-85
2022/03/17 00:19:47;;;;;;;;;;;;;;;7.68;74.19;102338.34;5035442;28;19927;-84
2022/03/17 00:22:15;;;;;;;;;;;;;;;7.69;74.09;102336.66;5036942;28;19921;-86
2022/03/17 00:24:41;;;;;;;;;;;;;;;7.70;74.00;102339.38;5027390;28;20312;-85
2022/03/17 00:27:08;;;;;;;;;;;;;;;7.77;73.78;102333.06;5031633;28;19925;-85
2022/03/17 00:29:34;;;;;;;;;;;;;;;7.79;73.53;102343.56;5033899;28;19920;-84
2022/03/17 00:31:59;;;;;;;;;;;;;;;7.74;73.72;102345.75;5046204;28;19925;-87
2022/03/17 00:34:25;;;;;;;;;;;;;;;7.71;73.82;102340.31;5042525;28;19921;-87
2022/03/17 00:36:50;;;;;;;;;;;;;;;7.77;73.70;102335.66;5046847;28;19964;-87
2022/03/17 00:39:16;;;;;;;;;;;;;;;7.82;73.50;102341.25;5026721;28;19925;-87
2022/03/17 00:41:41;;;;;;;;;;;;;;;7.90;73.05;102342.88;5047373;28;19917;-87
2022/03/17 00:44:07;;;;;;;;;;;;;;;7.81;73.48;102339.41;5027160;28;19928;-86
2022/03/17 00:46:32;;;;;;;;;;;;;;;7.85;73.34;102350.28;5014256;28;19982;-86
2022/03/17 00:48:58;;;;;;;;;;;;;;;7.85;73.21;102347.66;5029006;28;19921;-87
2022/03/17 00:51:23;;;;;;;;;;;;;;;7.81;73.35;102348.16;5032172;28;19931;-86
2022/03/17 00:53:49;;;;;;;;;;;;;;;7.84;73.44;102347.53;5044105;28;19999;-87
2022/03/17 00:56:14;;;;;;;;;;;;;;;7.81;73.42;102345.56;5036725;28;19921;-84
2022/03/17 00:58:40;;;;;;;;;;;;;;;7.75;73.64;102352.81;5015439;28;19986;-88
2022/03/17 01:01:05;;;;;;;;;;;;;;;7.77;73.64;102345.13;5033612;28;20419;-85
2022/03/17 01:03:31;;;;;;;;;;;;;;;7.80;73.43;102348.91;5051625;28;20402;-86
2022/03/17 01:05:56;;;;;;;;;;;;;;;7.72;73.57;102350.81;5020609;28;20390;-86
2022/03/17 01:08:21;;;;;;;;;;;;;;;7.67;73.77;102349.50;5031801;28;20365;-86
2022/03/17 01:10:47;;;;;;;;;;;;;;;7.74;73.62;102350.97;4997681;28;20099;-86
2022/03/17 01:13:12;;;;;;;;;;;;;;;7.73;73.63;102350.06;5051041;28;19917;-86
2022/03/17 01:15:39;;;;;;;;;;;;;;;7.78;73.50;102353.06;5033836;28;19920;-85
2022/03/17 01:18:05;;;;;;;;;;;;;;;7.80;73.50;102356.72;5033710;28;19917;-86
2022/03/17 01:20:30;;;;;;;;;;;;;;;7.80;73.25;102354.13;5033703;28;19917;-86
2022/03/17 01:22:56;;;;;;;;;;;;;;;7.80;73.54;102355.81;5049869;28;19959;-86
2022/03/17 01:25:21;;;;;;;;;;;;;;;7.80;73.42;102364.53;5051078;28;19923;-84
2022/03/17 01:27:46;;;;;;;;;;;;;;;7.77;73.54;102365.91;5054059;28;19917;-85
2022/03/17 01:30:12;;;;;;;;;;;;;;;7.74;73.83;102369.16;5054379;28;20386;-86
2022/03/17 01:32:38;;;;;;;;;;;;;;;7.84;73.58;102366.63;5035544;28;19921;-86
2022/03/17 01:35:05;;;;;;;;;;;;;;;7.80;73.56;102372.31;5021884;28;19921;-86
2022/03/17 01:37:30;;;;;;;;;;;;;;;7.86;73.34;102369.38;5036425;28;19925;-86
2022/03/17 01:39:56;;;;;;;;;;;;;;;7.85;73.14;102380.53;5047856;28;20396;-86
2022/03/17 01:42:21;;;;;;;;;;;;;;;7.79;73.65;102369.56;5021395;28;20406;-86
2022/03/17 01:44:47;;;;;;;;;;;;;;;7.74;73.52;102364.88;5034488;28;19929;-86
2022/03/17 01:47:27;;;;;;;;;;;;;;;7.78;73.62;102365.16;5040195;28;19921;-86
2022/03/17 01:49:53;;;;;;;;;;;;;;;7.81;73.40;102352.44;5037532;28;20001;-87
2022/03/17 01:52:18;;;;;;;;;;;;;;;7.82;73.56;102359.47;5020493;28;19920;-86
2022/03/17 01:54:44;;;;;;;;;;;;;;;7.82;73.44;102360.38;5051698;28;19925;-86
2022/03/17 01:57:10;;;;;;;;;;;;;;;7.74;73.60;102364.88;5042532;28;20009;-86
2022/03/17 01:59:37;;;;;;;;;;;;;;;7.80;73.49;102368.81;5039040;28;20386;-86
2022/03/17 02:02:08;;;;;;;;;;;;;;;7.78;73.58;102373.88;5038673;28;20015;-87
2022/03/17 02:04:35;;;;;;;;;;;;;;;7.83;73.35;102376.88;5037395;28;20376;-87
2022/03/17 02:07:01;;;;;;;;;;;;;;;7.80;73.32;102381.81;5033605;28;20008;-86
2022/03/17 02:09:26;;;;;;;;;;;;;;;7.73;73.65;102372.56;5032810;28;19925;-86
2022/03/17 02:14:46;;;;;;;;;;;;;;;7.75;73.64;102374.50;5034437;28;19931;-86
2022/03/17 02:17:12;;;;;;;;;;;;;;;7.68;73.81;102366.94;5054427;28;19946;-86
2022/03/17 02:19:37;;;;;;;;;;;;;;;7.75;73.60;102377.13;5026788;28;19999;-86
2022/03/17 02:22:03;;;;;;;;;;;;;;;7.74;73.68;102375.28;5042254;28;20413;-86
2022/03/17 02:27:12;;;;;;;;;;;;;;;7.75;73.68;102386.63;5028524;28;19980;-86
2022/03/17 02:29:38;;;;;;;;;;;;;;;7.73;73.58;102382.97;5040494;28;19924;-86
2022/03/17 02:32:04;;;;;;;;;;;;;;;7.77;73.54;102391.94;5042414;28;19921;-86
2022/03/17 02:34:29;;;;;;;;;;;;;;;7.76;73.63;102404.03;5040696;28;19927;-86
2022/03/17 02:36:56;;;;;;;;;;;;;;;7.71;73.82;102411.41;5014697;28;19922;-85
2022/03/17 02:39:22;;;;;;;;;;;;;;;7.74;73.70;102416.88;5023405;28;20383;-86
2022/03/17 02:41:47;;;;;;;;;;;;;;;7.78;73.53;102411.97;5015070;28;19980;-85
2022/03/17 02:44:13;;;;;;;;;;;;;;;7.78;73.52;102418.09;5020592;28;19922;-86
2022/03/17 02:46:38;;;;;;;;;;;;;;;7.80;73.33;102418.22;4993159;28;19918;-86
2022/03/17 02:49:05;;;;;;;;;;;;;;;7.77;73.43;102417.94;5010380;28;20037;-86
2022/03/17 02:51:30;;;;;;;;;;;;;;;7.70;73.83;102419.06;5016678;28;19929;-85
2022/03/17 02:53:56;;;;;;;;;;;;;;;7.72;73.61;102426.22;5024109;28;19926;-85
2022/03/17 02:56:21;;;;;;;;;;;;;;;7.70;73.69;102424.25;5024278;28;19922;-85
2022/03/17 02:58:47;;;;;;;;;;;;;;;7.74;73.71;102416.88;4995137;28;19921;-84
2022/03/17 03:01:12;;;;;;;;;;;;;;;7.75;73.54;102429.13;5009556;28;19921;-85
2022/03/17 03:03:38;;;;;;;;;;;;;;;7.72;73.84;102428.81;5007506;28;19922;-85
2022/03/17 03:06:03;;;;;;;;;;;;;;;7.71;73.83;102432.22;5000259;28;19943;-85
2022/03/17 03:08:29;;;;;;;;;;;;;;;7.79;73.36;102439.78;5004981;28;19929;-85
2022/03/17 03:10:56;;;;;;;;;;;;;;;7.75;73.48;102444.72;5012444;28;19918;-86
2022/03/17 03:13:22;;;;;;;;;;;;;;;7.79;73.63;102452.78;5027497;28;19918;-85
2022/03/17 03:15:50;;;;;;;;;;;;;;;7.81;73.13;102453.84;5012515;28;19980;-85
2022/03/17 03:18:16;;;;;;;;;;;;;;;7.74;73.62;102461.09;5028503;28;20363;-85
2022/03/17 03:20:42;;;;;;;;;;;;;;;7.74;73.42;102468.88;5015759;28;19925;-86
2022/03/17 03:23:08;;;;;;;;;;;;;;;7.74;73.62;102466.28;4996032;28;19976;-85
2022/03/17 03:25:33;;;;;;;;;;;;;;;7.75;73.60;102473.34;5009387;28;20016;-86
2022/03/17 03:28:04;;;;;;;;;;;;;;;7.77;73.45;102459.53;5006435;28;19921;-86
2022/03/17 03:30:29;;;;;;;;;;;;;;;7.75;73.62;102467.22;5011178;28;19922;-84
2022/03/17 03:32:55;;;;;;;;;;;;;;;7.57;74.30;102468.09;4993668;28;19925;-84
2022/03/17 03:38:04;;;;;;;;;;;;;;;7.75;73.83;102473.34;5042739;28;19928;-84
2022/03/17 03:40:29;;;;;;;;;;;;;;;7.69;73.95;102472.75;5039996;28;19924;-84
2022/03/17 03:42:55;;;;;;;;;;;;;;;7.73;73.86;102471.38;5014863;28;20386;-84
2022/03/17 03:45:20;;;;;;;;;;;;;;;7.73;73.82;102474.88;5027339;28;19921;-84
2022/03/17 03:47:46;;;;;;;;;;;;;;;7.81;73.55;102479.88;5031513;28;20071;-84
2022/03/17 03:50:11;;;;;;;;;;;;;;;7.78;73.70;102482.19;5017516;28;20362;-84
2022/03/17 03:52:37;;;;;;;;;;;;;;;7.76;73.59;102479.44;5032618;28;19925;-84
2022/03/17 03:55:02;;;;;;;;;;;;;;;7.77;73.48;102489.09;5004742;28;20369;-85
2022/03/17 03:57:28;;;;;;;;;;;;;;;7.77;73.50;102496.91;5030486;28;19999;-84
2022/03/17 03:59:53;;;;;;;;;;;;;;;7.71;73.69;102499.81;5050316;28;19928;-85
2022/03/17 04:02:18;;;;;;;;;;;;;;;7.77;73.45;102506.34;5041484;28;20378;-85
2022/03/17 04:04:44;;;;;;;;;;;;;;;7.81;73.27;102506.81;5039442;28;19921;-85
2022/03/17 04:07:10;;;;;;;;;;;;;;;7.77;73.46;102507.28;5045190;28;20300;-85
2022/03/17 04:09:40;;;;;;;;;;;;;;;7.76;73.43;102505.44;5017801;28;19921;-85
2022/03/17 04:12:06;;;;;;;;;;;;;;;7.72;73.61;102503.34;5034421;28;19913;-85
2022/03/17 04:14:32;;;;;;;;;;;;;;;7.71;73.86;102512.81;5033591;28;20413;-85
2022/03/17 04:16:57;;;;;;;;;;;;;;;7.63;74.21;102513.78;5029690;28;19917;-85
2022/03/17 04:19:23;;;;;;;;;;;;;;;7.66;74.07;102526.16;5044617;28;20035;-86
2022/03/17 04:21:49;;;;;;;;;;;;;;;7.75;73.95;102524.44;5040573;28;19968;-86
2022/03/17 04:24:15;;;;;;;;;;;;;;;7.70;73.78;102524.03;5021282;28;19929;-85
2022/03/17 04:26:40;;;;;;;;;;;;;;;7.75;73.57;102522.75;5034105;28;20011;-85
2022/03/17 04:29:06;;;;;;;;;;;;;;;7.75;73.47;102533.16;5031432;28;20019;-85
2022/03/17 04:31:33;;;;;;;;;;;;;;;7.74;73.55;102528.69;5017074;28;20333;-85
2022/03/17 04:33:58;;;;;;;;;;;;;;;7.75;73.45;102535.75;5021686;28;19947;-85
2022/03/17 04:36:23;;;;;;;;;;;;;;;7.71;73.75;102535.31;5033509;28;19932;-85
2022/03/17 04:38:49;;;;;;;;;;;;;;;7.78;73.66;102555.94;5036985;28;19927;-84
2022/03/17 04:41:14;;;;;;;;;;;;;;;7.65;74.21;102559.06;5052030;28;19920;-84
2022/03/17 04:43:40;;;;;;;;;;;;;;;7.82;73.70;102562.34;5026868;28;20006;-85
2022/03/17 04:46:08;;;;;;;;;;;;;;;7.80;73.52;102563.88;5043988;28;19921;-85
2022/03/17 04:48:34;;;;;;;;;;;;;;;7.73;73.93;102573.69;5040650;28;19916;-84
2022/03/17 04:50:59;;;;;;;;;;;;;;;7.80;73.47;102576.88;5043043;28;20007;-85
2022/03/17 04:53:28;;;;;;;;;;;;;;;7.76;73.58;102578.28;5048787;28;19960;-84
2022/03/17 04:56:01;;;;;;;;;;;;;;;7.71;74.00;102585.66;5044124;28;20023;-84
2022/03/17 04:58:27;;;;;;;;;;;;;;;7.69;73.83;102586.28;5039806;28;19921;-85
2022/03/17 05:00:53;;;;;;;;;;;;;;;7.74;73.90;102590.22;5046915;28;20297;-86
2022/03/17 05:03:19;;;;;;;;;;;;;;;7.79;73.54;102577.63;5023793;28;19921;-85
2022/03/17 05:05:45;;;;;;;;;;;;;;;7.74;73.83;102587.59;5036049;28;19944;-86
2022/03/17 05:08:10;;;;;;;;;;;;;;;7.74;73.98;102593.72;5033214;28;19987;-86
2022/03/17 05:10:36;;;;;;;;;;;;;;;7.73;73.71;102573.69;5050333;28;20374;-86
2022/03/17 05:13:08;;;;;;;;;;;;;;;7.77;73.90;102584.38;5036191;28;20020;-86
2022/03/17 05:15:34;;;;;;;;;;;;;;;7.74;73.74;102585.00;5036015;28;19920;-83
2022/03/17 05:17:59;;;;;;;;;;;;;;;7.74;73.70;102583.31;5029734;28;20003;-84
2022/03/17 05:20:25;;;;;;;;;;;;;;;7.74;73.79;102585.91;5051131;28;20352;-84
2022/03/17 05:22:51;;;;;;;;;;;;;;;7.81;73.55;102587.44;5034706;28;19916;-84
2022/03/17 05:25:16;;;;;;;;;;;;;;;7.77;73.64;102589.56;5027521;28;19955;-84
2022/03/17 05:27:42;;;;;;;;;;;;;;;7.81;73.44;102603.03;5039392;28;19921;-84
2022/03/17 05:30:14;;;;;;;;;;;;;;;7.78;73.57;102610.53;5036656;28;19981;-84
2022/03/17 05:32:40;;;;;;;;;;;;;;;7.73;73.94;102611.81;5031111;28;19921;-84
2022/03/17 05:35:06;;;;;;;;;;;;;;;7.64;74.18;102618.72;5032635;28;19932;-84
2022/03/17 05:37:32;;;;;;;;;;;;;;;7.73;73.90;102620.50;5041409;28;19964;-84
2022/03/17 05:39:57;;;;;;;;;;;;;;;7.75;73.68;102629.38;5054033;28;19963;-84
2022/03/17 05:42:23;;;;;;;;;;;;;;;7.81;73.44;102633.31;5036739;28;19983;-84
2022/03/17 05:44:48;;;;;;;;;;;;;;;7.82;73.50;102637.75;5035248;28;19993;-84
2022/03/17 05:47:14;;;;;;;;;;;;;;;7.80;73.46;102642.81;5054914;28;20009;-84
2022/03/17 05:49:39;;;;;;;;;;;;;;;7.65;74.09;102650.06;5035317;28;20034;-86
2022/03/17 05:52:05;;;;;;;;;;;;;;;7.69;74.05;102654.78;5022686;28;19928;-86
2022/03/17 05:54:30;;;;;;;;;;;;;;;7.63;74.29;102653.28;5012997;28;19960;-86
2022/03/17 05:56:56;;;;;;;;;;;;;;;7.71;73.87;102658.47;5026103;28;19979;-86
2022/03/17 05:59:21;;;;;;;;;;;;;;;7.80;73.52;102661.03;5045995;28;19921;-85
2022/03/17 06:01:46;;;;;;;;;;;;;;;7.68;73.96;102667.63;5049664;28;19932;-85
2022/03/17 06:04:12;;;;;;;;;;;;;;;7.75;73.73;102670.09;5030779;28;20015;-83
2022/03/17 06:06:37;;;;;;;;;;;;;;;7.71;73.77;102674.06;5033428;28;19995;-85
2022/03/17 06:09:03;;;;;;;;;;;;;;;7.78;73.53;102670.34;5038702;28;20015;-86
2022/03/17 06:11:28;;;;;;;;;;;;;;;7.70;73.94;102671.31;5025248;28;19991;-85
2022/03/17 06:13:54;;;;;;;;;;;;;;;7.69;73.73;102677.28;5057572;28;19924;-87
2022/03/17 06:16:20;;;;;;;;;;;;;;;7.77;73.67;102678.00;5040066;28;20023;-86
2022/03/17 06:18:46;;;;;;;;;;;;;;;7.78;73.39;102680.75;5020227;28;19917;-88
2022/03/17 06:21:12;;;;;;;;;;;;;;;7.73;73.68;102682.03;5036790;28;19942;-87
2022/03/17 06:23:37;;;;;;;;;;;;;;;7.63;74.12;102705.28;5016330;28;19921;-87
2022/03/17 06:26:03;;;;;;;;;;;;;;;7.70;73.85;102710.31;5032086;28;19921;-84
2022/03/17 06:28:28;;;;;;;;;;;;;;;7.70;74.03;102718.13;5048311;28;19963;-84
2022/03/17 06:30:54;;;;;;;;;;;;;;;7.71;73.54;102720.88;5053922;28;20306;-85
2022/03/17 06:33:20;;;;;;;;;;;;;;;7.80;73.63;102719.94;5042635;28;20054;-84
2022/03/17 06:35:45;;;;;;;;;;;;;;;7.81;73.29;102732.16;5055511;28;20389;-84
2022/03/17 06:38:11;;;;;;;;;;;;;;;7.87;73.17;102730.16;5042817;28;19921;-84
2022/03/17 06:40:37;;;;;;;;;;;;;;;7.48;74.55;102735.94;5053506;28;19943;-84
2022/03/17 06:43:03;;;;;;;;;;;;;;;7.73;74.00;102731.44;5018148;28;19928;-85
2022/03/17 06:45:29;;;;;;;;;;;;;;;7.74;73.61;102728.97;5027155;28;19925;-84
2022/03/17 06:47:54;;;;;;;;;;;;;;;7.63;74.21;102742.63;5030620;28;19921;-85
2022/03/17 06:50:21;;;;;;;;;;;;;;;7.78;73.56;102737.97;5026566;28;19924;-85
2022/03/17 06:52:46;;;;;;;;;;;;;;;7.77;73.54;102737.81;5042927;28;19921;-87
2022/03/17 06:55:12;;;;;;;;;;;;;;;7.77;73.51;102750.81;5034088;28;20008;-86
2022/03/17 06:57:37;;;;;;;;;;;;;;;7.75;73.49;102743.81;5052494;28;19928;-83
2022/03/17 07:00:04;;;;;;;;;;;;;;;7.78;73.46;102750.06;5053543;28;19917;-87
2022/03/17 07:02:29;;;;;;;;;;;;;;;7.66;73.60;102755.94;5019162;28;19921;-88
2022/03/17 07:04:56;;;;;;;;;;;;;;;7.65;73.79;102750.56;5035624;28;19928;-88
2022/03/17 07:07:23;;;;;;;;;;;;;;;7.69;73.79;102755.31;5051242;28;20020;-87
2022/03/17 07:09:51;;;;;;;;;;;;;;;7.71;73.56;102753.78;5034854;28;20012;-87
2022/03/17 07:12:18;;;;;;;;;;;;;;;7.66;73.86;102760.19;5035876;28;20389;-87
2022/03/17 07:14:44;;;;;;;;;;;;;;;7.78;73.16;102765.69;5034825;28;19928;-86
2022/03/17 07:17:10;;;;;;;;;;;;;;;7.70;73.42;102763.28;5052907;28;19921;-85
2022/03/17 07:19:36;;;;;;;;;;;;;;;7.62;73.83;102777.19;5039269;28;19921;-86
2022/03/17 07:22:02;;;;;;;;;;;;;;;7.70;73.45;102776.28;5017649;28;20008;-86
2022/03/17 07:24:27;;;;;;;;;;;;;;;7.78;73.02;102776.09;5051754;28;19925;-84
2022/03/17 07:26:52;;;;;;;;;;;;;;;7.52;74.57;102780.56;5027587;28;20313;-86
2022/03/17 07:29:18;;;;;;;;;;;;;;;7.70;73.68;102785.72;5017397;28;20021;-87
2022/03/17 07:31:43;;;;;;;;;;;;;;;7.67;74.08;102778.56;5044787;28;19917;-88
2022/03/17 07:34:09;;;;;;;;;;;;;;;7.72;73.74;102805.00;5014873;28;20559;-86
2022/03/17 07:36:34;;;;;;;;;;;;;;;7.57;73.92;102807.00;5026069;28;19931;-86
2022/03/17 07:39:03;;;;;;;;;;;;;;;7.47;74.42;102805.22;5026220;28;19920;-85
2022/03/17 07:41:29;;;;;;;;;;;;;;;7.49;74.24;102819.28;5028967;28;19921;-85
2022/03/17 07:43:54;;;;;;;;;;;;;;;7.64;73.89;102818.94;5046103;28;19920;-84
2022/03/17 07:46:20;;;;;;;;;;;;;;;7.58;73.90;102821.88;5039368;28;19921;-87
2022/03/17 07:48:45;;;;;;;;;;;;;;;7.73;73.36;102822.47;5046231;28;19932;-86
2022/03/17 07:51:11;;;;;;;;;;;;;;;7.58;74.00;102833.91;5053428;28;20615;-86
2022/03/17 07:53:37;;;;;;;;;;;;;;;7.55;74.14;102839.75;5017685;28;19933;-87
2022/03/17 07:56:02;;;;;;;;;;;;;;;7.51;74.01;102837.59;5038309;28;19920;-86
2022/03/17 07:58:28;;;;;;;;;;;;;;;7.52;73.89;102849.84;5033092;28;20290;-85
2022/03/17 08:00:54;;;;;;;;;;;;;;;7.68;73.35;102849.69;5032134;28;19974;-87
2022/03/17 08:03:20;;;;;;;;;;;;;;;7.45;74.37;102857.78;5016108;28;19932;-86
2022/03/17 08:05:47;;;;;;;;;;;;;;;7.58;73.79;102870.31;5024452;28;19924;-88
2022/03/17 08:08:19;;;;;;;;;;;;;;;7.63;73.68;102874.31;5015643;28;19925;-89
2022/03/17 08:10:45;;;;;;;;;;;;;;;7.65;73.68;102883.19;5016239;28;20046;-87
2022/03/17 08:13:10;;;;;;;;;;;;;;;7.65;73.69;102884.09;5025396;28;20023;-85
2022/03/17 08:15:46;;;;;;;;;;;;;;;7.69;73.66;102893.13;5030891;28;19952;-84
2022/03/17 08:18:12;;;;;;;;;;;;;;;7.68;73.67;102907.84;5033288;28;19928;-85
2022/03/17 08:20:38;;;;;;;;;;;;;;;7.48;74.09;102898.00;5014005;28;19925;-86
2022/03/17 08:23:03;;;;;;;;;;;;;;;7.67;74.14;102918.97;5054157;28;19926;-86
2022/03/17 08:25:29;;;;;;;;;;;;;;;7.77;73.86;102915.63;5016982;28;19917;-85
2022/03/17 08:27:55;;;;;;;;;;;;;;;7.84;73.24;102923.28;5044105;28;19921;-86
2022/03/17 08:30:23;;;;;;;;;;;;;;;7.86;73.36;102920.81;5043621;28;19927;-84
2022/03/17 08:32:49;;;;;;;;;;;;;;;7.84;73.54;102935.38;5046790;28;19947;-83
2022/03/17 08:35:14;;;;;;;;;;;;;;;7.87;73.51;102933.06;5019591;28;19917;-84
2022/03/17 08:37:43;;;;;;;;;;;;;;;7.79;74.00;102931.38;5029619;28;19978;-83
2022/03/17 08:40:09;;;;;;;;;;;;;;;7.60;74.74;102946.81;5046658;28;19935;-87
2022/03/17 08:42:35;;;;;;;;;;;;;;;7.66;74.29;102958.78;5044467;28;20308;-85
2022/03/17 08:45:01;;;;;;;;;;;;;;;7.69;74.13;102963.34;5033743;28;19913;-84
2022/03/17 08:50:10;;;;;;;;;;;;;;;7.74;74.07;102956.91;5050020;28;19924;-85
2022/03/17 08:52:35;;;;;;;;;;;;;;;7.81;74.04;102971.47;5016571;28;19917;-84
2022/03/17 08:55:01;;;;;;;;;;;;;;;7.86;73.68;102978.06;5050645;28;19928;-84
2022/03/17 08:57:26;;;;;;;;;;;;;;;7.93;73.80;102975.28;5033618;28;19927;-86
2022/03/17 08:59:53;;;;;;;;;;;;;;;7.91;73.82;102987.22;5035887;28;19920;-85
2022/03/17 09:02:18;;;;;;;;;;;;;;;7.99;73.95;102988.91;5034016;28;19921;-83
2022/03/17 09:04:44;;;;;;;;;;;;;;;8.00;73.91;102992.44;5045551;28;19925;-84
2022/03/17 09:07:10;;;;;;;;;;;;;;;7.98;74.01;103004.38;5037175;28;20413;-84
2022/03/17 09:09:36;;;;;;;;;;;;;;;7.99;74.17;103007.13;5032140;28;20283;-82
2022/03/17 09:12:05;;;;;;;;;;;;;;;8.03;73.44;103003.16;5037561;28;20015;-83
2022/03/17 09:14:33;;;;;;;;;;;;;;;8.03;73.87;103001.47;5057250;28;19921;-83
2022/03/17 09:16:59;;;;;;;;;;;;;;;7.99;73.66;103021.84;5045089;28;19927;-84
2022/03/17 09:19:24;;;;;;;;;;;;;;;8.03;73.37;103017.09;5062806;28;20019;-84
2022/03/17 09:21:50;;;;;;;;;;;;;;;7.97;74.19;103021.66;5066705;28;20015;-84
2022/03/17 09:24:15;;;;;;;;;;;;;;;7.98;74.75;103018.31;5043501;28;19952;-83
2022/03/17 09:26:40;;;;;;;;;;;;;;;8.15;73.70;103025.22;5071251;28;19924;-84
2022/03/17 09:29:06;;;;;;;;;;;;;;;8.09;74.20;103022.00;5056879;28;20361;-86
2022/03/17 09:31:31;;;;;;;;;;;;;;;8.08;74.36;103017.53;5016737;28;20447;-85
2022/03/17 09:33:57;;;;;;;;;;;;;;;7.99;74.91;103014.94;5046388;28;19925;-84
2022/03/17 09:36:22;;;;;;;;;;;;;;;7.89;75.04;103017.38;5055367;28;19924;-86
2022/03/17 09:39:39;;;;;;;;;;;;;;;8.08;74.05;103017.53;5047899;28;20408;-85
2022/03/17 09:41:35;;;;;;;;;;;;;;;8.01;74.94;103013.41;5036085;28;19917;-84
2022/03/17 09:44:02;;;;;;;;;;;;;;;8.08;74.58;103012.34;5043523;28;19920;-85
2022/03/17 09:46:27;;;;;;;;;;;;;;;8.01;74.58;103013.41;5034894;28;19921;-85
2022/03/17 09:48:54;;;;;;;;;;;;;;;8.04;74.88;103020.59;5050846;28;20004;-83
2022/03/17 09:51:20;;;;;;;;;;;;;;;8.18;74.16;103029.81;5032238;28;19948;-83
2022/03/17 09:53:46;;;;;;;;;;;;;;;8.32;73.55;103019.09;5035921;28;20404;-82
2022/03/17 09:56:11;;;;;;;;;;;;;;;8.26;74.24;103026.28;5017384;28;19974;-83
2022/03/17 09:58:37;;;;;;;;;;;;;;;8.36;74.06;103021.22;5047148;28;20378;-83
2022/03/17 10:01:06;;;;;;;;;;;;;;;8.31;74.66;103028.56;5050299;28;19921;-83
2022/03/17 10:03:34;;;;;;;;;;;;;;;8.40;74.50;103019.81;5019330;28;19928;-83
2022/03/17 10:06:02;;;;;;;;;;;;;;;8.18;74.09;103033.31;5033423;28;19928;-84
2022/03/17 10:08:27;;;;;;;;;;;;;;;8.03;74.74;103032.69;5018697;28;20537;-84
2022/03/17 10:10:55;;;;;;;;;;;;;;;7.91;75.53;103039.25;5053768;28;19928;-84
2022/03/17 10:13:22;;;;;;;;;;;;;;;8.07;74.54;103041.75;5019858;28;19924;-82
2022/03/17 10:16:05;;;;;;;;;;;;;;;8.07;75.68;103036.53;5033965;28;20381;-84
2022/03/17 10:18:30;;;;;;;;;;;;;;;8.27;74.84;103046.31;5026975;28;19924;-85
2022/03/17 10:21:12;;;;;;;;;;;;;;;8.24;75.39;103046.94;5037055;28;19921;-84
2022/03/17 10:23:48;;;;;;;;;;;;;;;8.30;75.07;103052.78;5047454;28;19928;-84
2022/03/17 10:26:29;;;;;;;;;;;;;;;8.23;75.06;103049.38;5036152;28;20401;-84
2022/03/17 10:28:57;;;;;;;;;;;;;;;8.21;75.34;103051.81;5046507;28;19917;-85
2022/03/17 10:31:24;;;;;;;;;;;;;;;8.22;75.63;103051.09;5013027;28;20030;-84
2022/03/17 10:33:52;;;;;;;;;;;;;;;8.26;75.65;103044.50;5032829;28;20368;-83
2022/03/17 10:36:21;;;;;;;;;;;;;;;8.28;75.89;103062.09;5015868;28;19925;-84
2022/03/17 10:38:48;;;;;;;;;;;;;;;8.35;75.99;103042.81;5016450;28;19954;-84
2022/03/17 10:41:14;;;;;;;;;;;;;;;8.32;76.07;103043.44;5016438;28;20024;-83
2022/03/17 10:43:42;;;;;;;;;;;;;;;8.31;76.40;103041.56;5032841;28;20062;-83
2022/03/17 10:46:11;;;;;;;;;;;;;;;8.23;76.21;103042.50;5016422;28;20020;-83
2022/03/17 10:48:57;;;;;;;;;;;;;;;8.14;77.31;103042.50;5016540;28;19917;-83
2022/03/17 10:51:32;;;;;;;;;;;;;;;8.37;76.35;103049.09;5033159;28;19917;-83
2022/03/17 10:54:02;;;;;;;;;;;;;;;8.40;76.41;103051.97;5033726;28;20008;-83
2022/03/17 10:56:27;;;;;;;;;;;;;;;8.42;76.63;103054.78;5016279;28;20020;-83
2022/03/17 10:58:52;;;;;;;;;;;;;;;8.49;76.80;103057.25;5014382;28;20016;-84
2022/03/17 11:01:22;;;;;;;;;;;;;;;8.33;76.85;103066.06;5031844;28;19917;-84
2022/03/17 11:03:50;;;;;;;;;;;;;;;8.36;77.01;103053.38;5032246;28;20017;-84
2022/03/17 11:06:15;;;;;;;;;;;;;;;8.34;77.50;103054.00;5015153;28;19921;-84
2022/03/17 11:08:43;;;;;;;;;;;;;;;8.48;77.24;103058.91;5014618;28;20409;-84
2022/03/17 11:11:10;;;;;;;;;;;;;;;8.50;77.46;103061.66;5015345;28;19924;-83
2022/03/17 11:13:36;;;;;;;;;;;;;;;8.43;77.75;103061.84;5014756;28;19939;-83
2022/03/17 11:16:04;;;;;;;;;;;;;;;8.50;77.70;103067.78;5028666;28;20313;-84
2022/03/17 11:18:34;;;;;;;;;;;;;;;8.45;78.27;103060.31;5052844;28;19916;-84
2022/03/17 11:21:15;;;;;;;;;;;;;;;8.49;78.32;103063.38;5035290;28;20011;-84
2022/03/17 11:24:00;;;;;;;;;;;;;;;8.58;78.45;103065.06;5052691;28;19980;-84
2022/03/17 11:26:34;;;;;;;;;;;;;;;8.55;78.89;103070.84;5018953;28;19975;-84
2022/03/17 11:29:04;;;;;;;;;;;;;;;8.55;79.17;103074.41;5035231;28;19916;-84
2022/03/17 11:31:30;;;;;;;;;;;;;;;8.61;78.63;103075.75;5052289;28;19917;-84
2022/03/17 11:34:03;;;;;;;;;;;;;;;8.58;78.79;103075.47;5034448;28;19924;-84
2022/03/17 11:36:31;;;;;;;;;;;;;;;8.61;79.03;103079.28;5052157;28;19976;-84
2022/03/17 11:39:13;;;;;;;;;;;;;;;8.73;78.76;103070.06;5052438;28;19944;-84
2022/03/17 11:41:42;;;;;;;;;;;;;;;8.83;78.51;103077.13;5034125;28;19928;-83
2022/03/17 11:44:07;;;;;;;;;;;;;;;8.73;79.12;103079.56;5033999;28;20036;-83
2022/03/17 11:46:45;;;;;;;;;;;;;;;8.61;80.04;103083.56;5034851;28;20629;-83
2022/03/17 11:49:17;;;;;;;;;;;;;;;8.72;79.05;103077.72;5034689;28;20007;-83
2022/03/17 11:51:53;;;;;;;;;;;;;;;8.72;79.62;103077.72;5052723;28;19916;-83
2022/03/17 11:54:18;;;;;;;;;;;;;;;8.75;79.51;103083.25;5052241;28;19986;-83
2022/03/17 11:56:45;;;;;;;;;;;;;;;8.79;79.38;103090.59;5052309;28;19917;-82
2022/03/17 11:59:14;;;;;;;;;;;;;;;8.76;79.61;103088.63;5034146;28;19923;-82
2022/03/17 12:01:41;;;;;;;;;;;;;;;8.75;79.70;103093.69;5034191;28;19917;-82
2022/03/17 12:04:07;;;;;;;;;;;;;;;8.61;80.30;103087.09;5034500;28;19917;-82
2022/03/17 12:06:32;;;;;;;;;;;;;;;8.71;80.42;103096.75;5034377;28;20405;-84
2022/03/17 12:09:01;;;;;;;;;;;;;;;8.81;79.89;103086.47;5052086;28;19927;-84
2022/03/17 12:11:26;;;;;;;;;;;;;;;8.62;80.98;103104.56;5050683;28;19970;-84
2022/03/17 12:14:22;;;;;;;;;;;;;;;8.74;80.04;103100.56;5051864;28;19921;-84
2022/03/17 12:16:51;;;;;;;;;;;;;;;8.91;79.20;103098.69;5023475;28;19928;-81
2022/03/17 12:19:35;;;;;;;;;;;;;;;8.82;79.63;103096.09;5031892;28;19917;-82
2022/03/17 12:22:00;;;;;;;;;;;;;;;8.71;80.87;103112.38;5032238;28;19924;-84
2022/03/17 12:24:35;;;;;;;;;;;;;;;8.88;79.84;103111.44;5032193;28;19917;-83
2022/03/17 12:27:04;;;;;;;;;;;;;;;8.86;80.29;103108.66;5032109;28;19917;-83
2022/03/17 12:29:30;;;;;;;;;;;;;;;8.89;79.49;103113.25;5031800;28;19924;-83
2022/03/17 12:31:56;;;;;;;;;;;;;;;8.84;80.43;103117.09;5014319;28;19917;-82
2022/03/17 12:34:22;;;;;;;;;;;;;;;8.93;79.30;103124.16;5014509;28;19963;-84
2022/03/17 12:36:47;;;;;;;;;;;;;;;9.07;79.08;103125.50;5031645;28;19925;-84
2022/03/17 12:39:14;;;;;;;;;;;;;;;9.03;79.03;103123.34;5014059;28;19988;-84
2022/03/17 12:41:40;;;;;;;;;;;;;;;8.89;80.56;103131.50;5014197;28;19925;-84
2022/03/17 12:44:06;;;;;;;;;;;;;;;8.93;80.29;103125.81;5014223;28;19968;-84
2022/03/17 12:46:31;;;;;;;;;;;;;;;8.83;80.67;103131.84;5013891;28;20002;-83
2022/03/17 12:49:07;;;;;;;;;;;;;;;8.94;79.78;103123.38;5031693;28;19917;-84
2022/03/17 12:51:32;;;;;;;;;;;;;;;8.95;79.89;103134.72;5014170;28;19917;-84
2022/03/17 12:54:04;;;;;;;;;;;;;;;8.89;79.75;103129.84;5031869;28;19921;-84
2022/03/17 12:56:30;;;;;;;;;;;;;;;8.87;80.30;103120.00;5014228;28;20378;-83